createdAt,value
2022-09-07T00:00:00.378Z,81.10
2022-09-07T00:01:00.267Z,81.10
2022-09-07T00:02:00.334Z,81.57
2022-09-07T00:03:00.403Z,81.57
2022-09-07T00:04:00.404Z,81.57
2022-09-07T00:05:00.288Z,81.57
2022-09-07T00:06:04.024Z,81.57
2022-09-07T00:07:00.413Z,81.19
2022-09-07T00:08:00.322Z,81.19
2022-09-07T00:09:00.995Z,81.19
2022-09-07T00:10:00.259Z,81.19
2022-09-07T00:11:01.753Z,81.19
2022-09-07T00:12:00.389Z,81.26
2022-09-07T00:13:00.340Z,81.26
2022-09-07T00:14:00.258Z,81.26
2022-09-07T00:15:00.302Z,81.26
2022-09-07T00:16:05.139Z,81.26
2022-09-07T00:17:00.260Z,82.01
2022-09-07T00:18:00.269Z,82.01
2022-09-07T00:19:01.296Z,82.01
2022-09-07T00:20:00.680Z,82.01
2022-09-07T00:21:01.577Z,82.01
2022-09-07T00:22:00.266Z,81.59
2022-09-07T00:23:00.307Z,81.59
2022-09-07T00:24:00.264Z,81.59
2022-09-07T00:25:00.345Z,81.59
2022-09-07T00:26:01.601Z,81.59
2022-09-07T00:27:00.285Z,81.66
2022-09-07T00:28:00.339Z,81.66
2022-09-07T00:29:01.542Z,81.66
2022-09-07T00:30:00.263Z,81.66
2022-09-07T00:31:00.669Z,81.66
2022-09-07T00:32:00.318Z,81.60
2022-09-07T00:33:00.298Z,81.60
2022-09-07T00:34:00.952Z,81.60
2022-09-07T00:35:00.261Z,81.60
2022-09-07T00:36:00.352Z,81.60
2022-09-07T00:37:00.304Z,81.75
2022-09-07T00:38:00.269Z,81.75
2022-09-07T00:39:00.279Z,81.75
2022-09-07T00:40:00.520Z,81.75
2022-09-07T00:41:00.368Z,81.75
2022-09-07T00:42:00.448Z,81.81
2022-09-07T00:43:00.325Z,81.81
2022-09-07T00:44:10.184Z,81.81
2022-09-07T00:45:09.032Z,81.81
2022-09-07T00:46:00.603Z,81.81
2022-09-07T00:47:00.481Z,82.41
2022-09-07T00:48:07.348Z,82.41
2022-09-07T00:49:05.602Z,82.41
2022-09-07T00:50:03.976Z,82.41
2022-09-07T00:51:04.022Z,82.41
2022-09-07T00:52:02.573Z,82.00
2022-09-07T00:53:04.001Z,82.00
2022-09-07T00:54:04.739Z,82.00
2022-09-07T00:55:02.499Z,82.00
2022-09-07T00:56:00.965Z,82.00
2022-09-07T00:57:00.361Z,82.19
2022-09-07T00:58:01.023Z,82.19
2022-09-07T00:59:00.705Z,82.19
2022-09-07T01:00:00.381Z,82.19
2022-09-07T01:01:00.449Z,82.19
2022-09-07T01:02:00.408Z,82.13
2022-09-07T01:03:01.059Z,82.13
2022-09-07T01:04:01.026Z,82.13
2022-09-07T01:05:08.825Z,82.13
2022-09-07T01:06:05.972Z,82.13
2022-09-07T01:07:01.998Z,82.17
2022-09-07T01:08:00.329Z,82.17
2022-09-07T01:09:02.756Z,82.17
2022-09-07T01:10:00.617Z,82.17
2022-09-07T01:11:00.378Z,82.17
2022-09-07T01:12:00.904Z,82.12
2022-09-07T01:13:00.338Z,82.12
2022-09-07T01:14:01.425Z,82.12
2022-09-07T01:15:00.521Z,82.12
2022-09-07T01:16:01.346Z,82.12
2022-09-07T01:17:10.182Z,82.48
2022-09-07T01:18:00.252Z,82.48
2022-09-07T01:19:07.654Z,82.48
2022-09-07T01:20:00.260Z,82.48
2022-09-07T01:21:00.257Z,82.48
2022-09-07T01:22:10.176Z,82.51
2022-09-07T01:23:07.792Z,82.51
2022-09-07T01:24:10.178Z,82.51
2022-09-07T01:25:10.192Z,82.51
2022-09-07T01:26:10.201Z,82.51
2022-09-07T01:27:10.187Z,82.37
2022-09-07T01:28:00.253Z,82.37
2022-09-07T01:29:07.194Z,82.37
2022-09-07T01:30:04.704Z,82.37
2022-09-07T01:31:10.224Z,82.37
2022-09-07T01:32:00.266Z,82.48
2022-09-07T01:33:09.381Z,82.48
2022-09-07T01:34:09.083Z,82.48
2022-09-07T01:35:01.294Z,82.48
2022-09-07T01:36:00.295Z,82.48
2022-09-07T01:37:01.302Z,82.54
2022-09-07T01:38:10.177Z,82.54
2022-09-07T01:39:02.708Z,82.54
2022-09-07T01:40:10.332Z,82.54
2022-09-07T01:41:10.195Z,82.54
2022-09-07T01:42:04.563Z,82.89
2022-09-07T01:43:03.366Z,82.89
2022-09-07T01:44:04.545Z,82.89
2022-09-07T01:45:01.185Z,82.89
2022-09-07T01:46:02.323Z,82.89
2022-09-07T01:47:01.471Z,83.05
2022-09-07T01:48:03.448Z,83.05
2022-09-07T01:49:03.681Z,83.05
2022-09-07T01:50:10.181Z,83.05
2022-09-07T01:51:01.924Z,83.05
2022-09-07T01:52:02.623Z,83.22
2022-09-07T01:53:03.469Z,83.22
2022-09-07T01:54:05.113Z,83.22
2022-09-07T01:55:06.337Z,83.22
2022-09-07T01:56:05.885Z,83.22
2022-09-07T01:57:02.068Z,83.26
2022-09-07T01:58:02.925Z,83.26
2022-09-07T01:59:03.394Z,83.26
2022-09-07T02:00:09.317Z,83.26
2022-09-07T02:01:04.297Z,83.26
2022-09-07T02:02:04.651Z,83.39
2022-09-07T02:03:05.626Z,83.39
2022-09-07T02:04:04.987Z,83.39
2022-09-07T02:05:00.261Z,83.39
2022-09-07T02:06:07.782Z,83.39
2022-09-07T02:07:07.541Z,83.40
2022-09-07T02:08:10.184Z,83.40
2022-09-07T02:09:10.200Z,83.40
2022-09-07T02:10:01.251Z,83.40
2022-09-07T02:11:06.860Z,83.40
2022-09-07T02:12:03.000Z,83.74
2022-09-07T02:13:05.628Z,83.74
2022-09-07T02:14:04.274Z,83.74
2022-09-07T02:15:02.531Z,83.74
2022-09-07T02:16:01.315Z,83.74
2022-09-07T02:17:03.803Z,84.03
2022-09-07T02:18:03.369Z,84.03
2022-09-07T02:19:03.192Z,84.03
2022-09-07T02:20:05.301Z,84.03
2022-09-07T02:21:00.647Z,84.03
2022-09-07T02:22:03.124Z,84.14
2022-09-07T02:23:03.161Z,84.14
2022-09-07T02:24:04.041Z,84.14
2022-09-07T02:25:02.271Z,84.14
2022-09-07T02:26:02.526Z,84.14
2022-09-07T02:27:03.516Z,84.30
2022-09-07T02:28:06.297Z,84.30
2022-09-07T02:29:00.317Z,84.30
2022-09-07T02:30:00.477Z,84.30
2022-09-07T02:31:00.734Z,84.30
2022-09-07T02:32:00.313Z,84.38
2022-09-07T02:33:00.380Z,84.38
2022-09-07T02:34:00.356Z,84.38
2022-09-07T02:35:00.452Z,84.38
2022-09-07T02:36:01.376Z,84.38
2022-09-07T02:37:01.665Z,84.43
2022-09-07T02:38:01.954Z,84.43
2022-09-07T02:39:00.271Z,84.43
2022-09-07T02:40:00.368Z,84.43
2022-09-07T02:41:01.484Z,84.43
2022-09-07T02:42:00.369Z,84.37
2022-09-07T02:43:02.788Z,84.37
2022-09-07T02:44:02.678Z,84.37
2022-09-07T02:45:02.730Z,84.37
2022-09-07T02:46:00.321Z,84.37
2022-09-07T02:47:08.984Z,85.00
2022-09-07T02:48:08.272Z,85.00
2022-09-07T02:49:00.248Z,85.00
2022-09-07T02:50:10.187Z,85.00
2022-09-07T02:51:00.253Z,85.00
2022-09-07T02:52:10.185Z,84.94
2022-09-07T02:53:10.169Z,84.94
2022-09-07T02:54:10.168Z,84.94
2022-09-07T02:55:07.655Z,84.94
2022-09-07T02:56:10.172Z,84.94
2022-09-07T02:57:01.299Z,85.21
2022-09-07T02:58:08.050Z,85.21
2022-09-07T02:59:06.437Z,85.21
2022-09-07T03:00:06.215Z,85.21
2022-09-07T03:01:08.519Z,85.21
2022-09-07T03:02:03.744Z,85.29
2022-09-07T03:03:07.876Z,85.29
2022-09-07T03:04:10.188Z,85.29
2022-09-07T03:05:02.009Z,85.29
2022-09-07T03:06:03.477Z,85.29
2022-09-07T03:07:07.637Z,85.00
2022-09-07T03:08:03.179Z,85.00
2022-09-07T03:09:04.339Z,85.00
2022-09-07T03:10:02.130Z,85.00
2022-09-07T03:11:00.536Z,85.00
2022-09-07T03:12:02.841Z,85.28
2022-09-07T03:13:00.250Z,85.28
2022-09-07T03:14:10.228Z,85.28
2022-09-07T03:15:00.286Z,85.28
2022-09-07T03:16:00.452Z,85.28
2022-09-07T03:17:00.682Z,85.49
2022-09-07T03:18:00.279Z,85.49
2022-09-07T03:19:00.275Z,85.49
2022-09-07T03:20:00.278Z,85.49
2022-09-07T03:21:00.375Z,85.49
2022-09-07T03:22:00.338Z,85.40
2022-09-07T03:23:00.275Z,85.40
2022-09-07T03:24:00.611Z,85.40
2022-09-07T03:25:00.727Z,85.40
2022-09-07T03:26:00.258Z,85.40
2022-09-07T03:27:00.257Z,85.24
2022-09-07T03:28:00.263Z,85.24
2022-09-07T03:29:00.253Z,85.24
2022-09-07T03:30:00.522Z,85.24
2022-09-07T03:31:00.625Z,85.24
2022-09-07T03:32:00.299Z,85.38
2022-09-07T03:33:00.455Z,85.38
2022-09-07T03:34:00.604Z,85.38
2022-09-07T03:35:00.709Z,85.38
2022-09-07T03:36:00.621Z,85.38
2022-09-07T03:37:00.661Z,85.41
2022-09-07T03:38:00.305Z,85.41
2022-09-07T03:39:00.467Z,85.41
2022-09-07T03:40:00.377Z,85.41
2022-09-07T03:41:00.988Z,85.41
2022-09-07T03:42:00.273Z,85.45
2022-09-07T03:43:00.273Z,85.45
2022-09-07T03:44:02.921Z,85.45
2022-09-07T03:45:00.321Z,85.45
2022-09-07T03:46:01.879Z,85.45
2022-09-07T03:47:00.530Z,85.95
2022-09-07T03:48:01.556Z,85.95
2022-09-07T03:49:00.474Z,85.95
2022-09-07T03:50:00.294Z,85.95
2022-09-07T03:51:04.789Z,85.95
2022-09-07T03:52:01.144Z,85.60
2022-09-07T03:53:00.265Z,85.60
2022-09-07T03:54:00.275Z,85.60
2022-09-07T03:55:00.423Z,85.60
2022-09-07T03:56:02.222Z,85.60
2022-09-07T03:57:00.458Z,85.71
2022-09-07T03:58:00.278Z,85.71
2022-09-07T03:59:00.947Z,85.71
2022-09-07T04:00:00.474Z,85.71
2022-09-07T04:01:04.582Z,85.71
2022-09-07T04:02:00.877Z,85.41
2022-09-07T04:03:00.305Z,85.41
2022-09-07T04:04:02.381Z,85.41
2022-09-07T04:05:00.307Z,85.41
2022-09-07T04:06:00.923Z,85.41
2022-09-07T04:07:00.268Z,84.74
2022-09-07T04:08:00.458Z,84.74
2022-09-07T04:09:01.140Z,84.74
2022-09-07T04:10:00.883Z,84.74
2022-09-07T04:11:01.160Z,84.74
2022-09-07T04:12:06.077Z,85.17
2022-09-07T04:13:00.256Z,85.17
2022-09-07T04:14:00.560Z,85.17
2022-09-07T04:15:00.262Z,85.17
2022-09-07T04:16:08.197Z,85.17
2022-09-07T04:17:00.380Z,85.96
2022-09-07T04:18:00.869Z,85.96
2022-09-07T04:19:00.331Z,85.96
2022-09-07T04:20:00.313Z,85.96
2022-09-07T04:21:00.269Z,85.96
2022-09-07T04:22:00.266Z,85.26
2022-09-07T04:23:00.258Z,85.26
2022-09-07T04:24:00.314Z,85.26
2022-09-07T04:25:00.279Z,85.26
2022-09-07T04:26:00.437Z,85.26
2022-09-07T04:27:00.287Z,85.36
2022-09-07T04:28:00.411Z,85.36
2022-09-07T04:29:00.381Z,85.36
2022-09-07T04:30:00.270Z,85.36
2022-09-07T04:31:00.828Z,85.36
2022-09-07T04:32:00.386Z,85.20
2022-09-07T04:33:00.271Z,85.20
2022-09-07T04:34:00.990Z,85.20
2022-09-07T04:35:00.280Z,85.20
2022-09-07T04:36:00.748Z,85.20
2022-09-07T04:37:00.263Z,84.78
2022-09-07T04:38:00.275Z,84.78
2022-09-07T04:39:01.484Z,84.78
2022-09-07T04:40:00.394Z,84.78
2022-09-07T04:41:02.563Z,84.78
2022-09-07T04:42:00.274Z,84.62
2022-09-07T04:43:00.278Z,84.62
2022-09-07T04:44:01.380Z,84.62
2022-09-07T04:45:00.297Z,84.62
2022-09-07T04:46:02.281Z,84.62
2022-09-07T04:47:00.264Z,84.51
2022-09-07T04:48:00.318Z,84.51
2022-09-07T04:49:01.923Z,84.51
2022-09-07T04:50:00.301Z,84.51
2022-09-07T04:51:05.899Z,84.51
2022-09-07T04:52:00.383Z,84.89
2022-09-07T04:53:00.267Z,84.89
2022-09-07T04:54:00.926Z,84.89
2022-09-07T04:55:00.270Z,84.89
2022-09-07T04:56:00.816Z,84.89
2022-09-07T04:57:00.278Z,85.12
2022-09-07T04:58:00.267Z,85.12
2022-09-07T04:59:00.683Z,85.12
2022-09-07T05:00:00.409Z,85.12
2022-09-07T05:01:00.783Z,85.12
2022-09-07T05:02:00.306Z,84.76
2022-09-07T05:03:00.266Z,84.76
2022-09-07T05:04:00.785Z,84.76
2022-09-07T05:05:02.805Z,84.76
2022-09-07T05:06:00.707Z,84.76
2022-09-07T05:07:00.327Z,84.64
2022-09-07T05:08:00.364Z,84.64
2022-09-07T05:09:00.263Z,84.64
2022-09-07T05:10:00.263Z,84.64
2022-09-07T05:11:00.261Z,84.64
2022-09-07T05:12:00.340Z,83.99
2022-09-07T05:13:00.327Z,83.99
2022-09-07T05:14:00.921Z,83.99
2022-09-07T05:15:00.280Z,83.99
2022-09-07T05:16:06.161Z,83.99
2022-09-07T05:17:00.379Z,84.73
2022-09-07T05:18:00.268Z,84.73
2022-09-07T05:19:01.270Z,84.73
2022-09-07T05:20:00.333Z,84.73
2022-09-07T05:21:07.782Z,84.73
2022-09-07T05:22:00.582Z,84.92
2022-09-07T05:23:00.268Z,84.92
2022-09-07T05:24:00.900Z,84.92
2022-09-07T05:25:00.257Z,84.92
2022-09-07T05:26:00.265Z,84.92
2022-09-07T05:27:00.247Z,84.21
2022-09-07T05:28:00.371Z,84.21
2022-09-07T05:31:19.886Z,84.21
2022-09-07T05:32:00.321Z,84.42
2022-09-07T05:33:00.288Z,84.42
2022-09-07T05:35:00.303Z,84.42
2022-09-07T05:36:00.533Z,84.42
2022-09-07T05:37:00.637Z,84.64
2022-09-07T05:38:00.263Z,84.64
2022-09-07T05:39:00.270Z,84.64
2022-09-07T05:40:00.391Z,84.64
2022-09-07T05:41:00.268Z,84.64
2022-09-07T05:42:00.294Z,84.50
2022-09-07T05:43:00.276Z,84.50
2022-09-07T05:45:00.293Z,84.50
2022-09-07T05:46:00.367Z,84.50
2022-09-07T05:47:00.290Z,84.76
2022-09-07T05:48:00.363Z,84.76
2022-09-07T05:49:00.284Z,84.76
2022-09-07T05:50:00.251Z,84.76
2022-09-07T05:51:00.311Z,84.76
2022-09-07T05:52:00.254Z,84.61
2022-09-07T05:53:00.605Z,84.61
2022-09-07T05:54:00.260Z,84.61
2022-09-07T05:55:28.415Z,84.61
2022-09-07T05:56:05.142Z,84.61
2022-09-07T05:57:00.264Z,84.81
2022-09-07T05:58:00.257Z,84.81
2022-09-07T05:59:00.268Z,84.81
2022-09-07T06:00:00.595Z,84.81
2022-09-07T06:01:01.169Z,84.81
2022-09-07T06:02:00.481Z,84.72
2022-09-07T06:03:00.422Z,84.72
2022-09-07T06:04:00.385Z,84.72
2022-09-07T06:05:00.249Z,84.72
2022-09-07T06:06:01.291Z,84.72
2022-09-07T06:07:22.675Z,84.92
2022-09-07T06:08:00.344Z,84.92
2022-09-07T06:09:00.298Z,84.92
2022-09-07T06:11:08.399Z,84.92
2022-09-07T06:12:00.292Z,84.35
2022-09-07T06:13:00.475Z,84.35
2022-09-07T06:14:00.269Z,84.35
2022-09-07T06:15:00.426Z,84.35
2022-09-07T06:16:00.906Z,84.35
2022-09-07T06:17:00.330Z,84.67
2022-09-07T06:18:00.263Z,84.67
2022-09-07T06:19:03.802Z,84.67
2022-09-07T06:20:00.404Z,84.67
2022-09-07T06:21:02.306Z,84.67
2022-09-07T06:22:00.283Z,84.37
2022-09-07T06:23:00.256Z,84.37
2022-09-07T06:24:00.275Z,84.37
2022-09-07T06:25:00.261Z,84.37
2022-09-07T06:26:00.482Z,84.37
2022-09-07T06:27:00.299Z,84.07
2022-09-07T06:28:00.349Z,84.07
2022-09-07T06:29:00.903Z,84.07
2022-09-07T06:30:00.274Z,84.07
2022-09-07T06:31:01.151Z,84.07
2022-09-07T06:33:00.394Z,84.07
2022-09-07T06:34:00.265Z,84.07
2022-09-07T06:35:00.613Z,84.07
2022-09-07T06:36:01.973Z,84.07
2022-09-07T06:37:00.298Z,83.71
2022-09-07T06:38:00.273Z,83.71
2022-09-07T06:39:00.309Z,83.71
2022-09-07T06:40:00.432Z,83.71
2022-09-07T06:42:00.461Z,83.30
2022-09-07T06:43:00.283Z,83.30
2022-09-07T06:44:00.366Z,83.30
2022-09-07T06:45:00.289Z,83.30
2022-09-07T06:48:00.262Z,83.69
2022-09-07T06:49:00.257Z,83.69
2022-09-07T06:50:00.297Z,83.69
2022-09-07T06:51:01.282Z,83.69
2022-09-07T06:52:00.369Z,83.68
2022-09-07T06:55:00.908Z,83.68
2022-09-07T06:56:00.665Z,83.68
2022-09-07T06:57:00.274Z,82.98
2022-09-07T06:58:00.258Z,82.98
2022-09-07T06:59:00.266Z,82.98
2022-09-07T07:00:00.390Z,82.98
2022-09-07T07:01:04.690Z,82.98
2022-09-07T07:02:00.271Z,82.55
2022-09-07T07:03:00.390Z,82.55
2022-09-07T07:04:00.467Z,82.55
2022-09-07T07:05:00.316Z,82.55
2022-09-07T07:06:00.283Z,82.55
2022-09-07T07:07:00.277Z,82.34
2022-09-07T07:08:00.270Z,82.34
2022-09-07T07:09:00.531Z,82.34
2022-09-07T07:10:00.277Z,82.34
2022-09-07T07:11:01.906Z,82.34
2022-09-07T07:12:00.309Z,82.42
2022-09-07T07:13:00.270Z,82.42
2022-09-07T07:14:00.295Z,82.42
2022-09-07T07:15:00.274Z,82.42
2022-09-07T07:16:01.254Z,82.42
2022-09-07T07:17:00.299Z,82.31
2022-09-07T07:18:14.839Z,82.31
2022-09-07T07:19:00.274Z,82.31
2022-09-07T07:20:00.323Z,82.31
2022-09-07T07:21:02.293Z,82.31
2022-09-07T07:22:46.086Z,81.50
2022-09-07T07:23:00.301Z,81.50
2022-09-07T07:24:02.189Z,81.50
2022-09-07T07:25:00.336Z,81.50
2022-09-07T07:26:00.973Z,81.50
2022-09-07T07:27:00.295Z,81.50
2022-09-07T07:29:00.624Z,81.50
2022-09-07T07:30:00.468Z,81.50
2022-09-07T07:31:04.872Z,81.50
2022-09-07T07:32:00.305Z,81.24
2022-09-07T07:33:00.363Z,81.24
2022-09-07T07:34:00.474Z,81.24
2022-09-07T07:35:00.259Z,81.24
2022-09-07T07:36:10.172Z,81.24
2022-09-07T07:37:00.279Z,81.00
2022-09-07T07:39:00.993Z,81.00
2022-09-07T07:40:17.462Z,81.00
2022-09-07T07:42:03.225Z,80.68
2022-09-07T07:43:00.263Z,80.68
2022-09-07T07:44:00.759Z,80.68
2022-09-07T07:46:02.618Z,80.68
2022-09-07T07:47:00.956Z,80.69
2022-09-07T07:48:00.308Z,80.69
2022-09-07T07:49:00.271Z,80.69
2022-09-07T07:50:32.493Z,80.69
2022-09-07T07:51:04.391Z,80.69
2022-09-07T07:54:00.576Z,80.60
2022-09-07T07:55:00.432Z,80.60
2022-09-07T07:56:00.672Z,80.60
2022-09-07T07:57:00.515Z,80.54
2022-09-07T07:58:00.388Z,80.54
2022-09-07T07:59:00.296Z,80.54
2022-09-07T08:00:00.782Z,80.54
2022-09-07T08:01:01.552Z,80.54
2022-09-07T08:02:00.486Z,80.08
2022-09-07T08:03:00.530Z,80.08
2022-09-07T08:04:00.347Z,80.08
2022-09-07T08:05:00.280Z,80.08
2022-09-07T08:06:05.464Z,80.08
2022-09-07T08:07:03.436Z,80.24
2022-09-07T08:08:00.611Z,80.24
2022-09-07T08:09:00.269Z,80.24
2022-09-07T08:10:00.351Z,80.24
2022-09-07T08:11:00.978Z,80.24
2022-09-07T08:12:00.356Z,79.33
2022-09-07T08:13:00.277Z,79.33
2022-09-07T08:14:02.281Z,79.33
2022-09-07T08:15:00.371Z,79.33
2022-09-07T08:16:00.393Z,79.33
2022-09-07T08:17:00.263Z,79.13
2022-09-07T08:18:00.264Z,79.13
2022-09-07T08:19:00.277Z,79.13
2022-09-07T08:20:00.315Z,79.13
2022-09-07T08:21:01.352Z,79.13
2022-09-07T08:22:00.274Z,78.59
2022-09-07T08:23:00.256Z,78.59
2022-09-07T08:24:00.376Z,78.59
2022-09-07T08:25:00.289Z,78.59
2022-09-07T08:26:00.678Z,78.59
2022-09-07T08:27:00.388Z,78.19
2022-09-07T08:28:00.687Z,78.19
2022-09-07T08:29:00.278Z,78.19
2022-09-07T08:30:00.596Z,78.19
2022-09-07T08:31:03.369Z,78.19
2022-09-07T08:32:00.355Z,77.03
2022-09-07T08:33:00.263Z,77.03
2022-09-07T08:34:00.355Z,77.03
2022-09-07T08:35:00.400Z,77.03
2022-09-07T08:36:01.577Z,77.03
2022-09-07T08:37:00.266Z,76.76
2022-09-07T08:38:00.263Z,76.76
2022-09-07T08:39:00.429Z,76.76
2022-09-07T08:40:01.159Z,76.76
2022-09-07T08:41:01.566Z,76.76
2022-09-07T08:42:06.806Z,76.50
2022-09-07T08:43:00.251Z,76.50
2022-09-07T08:44:01.777Z,76.50
2022-09-07T08:45:10.241Z,76.50
2022-09-07T08:46:10.216Z,76.50
2022-09-07T08:47:10.214Z,76.96
2022-09-07T08:48:02.186Z,76.96
2022-09-07T08:49:01.455Z,76.96
2022-09-07T08:50:01.334Z,76.96
2022-09-07T08:51:00.249Z,76.96
2022-09-07T08:52:02.824Z,77.21
2022-09-07T08:53:00.264Z,77.21
2022-09-07T08:54:00.379Z,77.21
2022-09-07T08:55:03.323Z,77.21
2022-09-07T08:56:03.542Z,77.21
2022-09-07T08:57:22.310Z,77.08
2022-09-07T08:58:04.154Z,77.08
2022-09-07T08:59:05.569Z,77.08
2022-09-07T09:00:00.307Z,77.08
2022-09-07T09:02:30.054Z,76.83
2022-09-07T09:03:30.490Z,76.83
2022-09-07T09:04:16.956Z,76.83
2022-09-07T09:05:17.579Z,76.83
2022-09-07T09:06:07.809Z,76.83
2022-09-07T09:07:10.312Z,76.86
2022-09-07T09:08:09.385Z,76.86
2022-09-07T09:09:10.242Z,76.86
2022-09-07T09:10:01.264Z,76.86
2022-09-07T09:11:04.483Z,76.86
2022-09-07T09:12:01.295Z,76.59
2022-09-07T09:13:10.174Z,76.59
2022-09-07T09:14:08.635Z,76.59
2022-09-07T09:15:10.179Z,76.59
2022-09-07T09:16:10.411Z,76.59
2022-09-07T09:17:06.933Z,76.25
2022-09-07T09:18:00.245Z,76.25
2022-09-07T09:19:10.168Z,76.25
2022-09-07T09:20:10.204Z,76.25
2022-09-07T09:21:00.690Z,76.25
2022-09-07T09:22:08.495Z,76.03
2022-09-07T09:23:03.937Z,76.03
2022-09-07T09:24:04.605Z,76.03
2022-09-07T09:25:03.516Z,76.03
2022-09-07T09:26:04.634Z,76.03
2022-09-07T09:27:00.284Z,75.72
2022-09-07T09:28:00.358Z,75.72
2022-09-07T09:29:10.182Z,75.72
2022-09-07T09:30:00.319Z,75.72
2022-09-07T09:31:00.426Z,75.72
2022-09-07T09:32:10.184Z,75.32
2022-09-07T09:33:10.196Z,75.32
2022-09-07T09:34:07.785Z,75.32
2022-09-07T09:35:10.255Z,75.32
2022-09-07T09:36:00.867Z,75.32
2022-09-07T09:37:00.274Z,75.32
2022-09-07T09:38:00.319Z,75.32
2022-09-07T09:39:00.537Z,75.32
2022-09-07T09:40:03.074Z,75.32
2022-09-07T09:41:03.986Z,75.32
2022-09-07T09:42:10.174Z,74.93
2022-09-07T09:43:01.931Z,74.93
2022-09-07T09:44:00.383Z,74.93
2022-09-07T09:45:05.102Z,74.93
2022-09-07T09:46:14.172Z,74.93
2022-09-07T09:47:31.041Z,73.56
2022-09-07T09:48:01.550Z,73.56
2022-09-07T09:49:04.184Z,73.56
2022-09-07T09:50:03.507Z,73.56
2022-09-07T09:52:32.597Z,74.19
2022-09-07T09:53:01.086Z,74.19
2022-09-07T09:54:02.375Z,74.19
2022-09-07T09:55:23.660Z,74.19
2022-09-07T09:56:01.998Z,74.19
2022-09-07T09:57:00.262Z,74.00
2022-09-07T10:00:05.323Z,74.00
2022-09-07T10:01:25.379Z,74.00
2022-09-07T10:04:14.584Z,73.26
2022-09-07T10:05:03.769Z,73.26
2022-09-07T10:06:04.017Z,73.26
2022-09-07T10:07:05.674Z,70.68
2022-09-07T10:08:00.665Z,70.68
2022-09-07T10:09:01.178Z,70.68
2022-09-07T10:10:00.301Z,70.68
2022-09-07T10:11:08.624Z,70.68
2022-09-07T10:12:08.213Z,69.52
2022-09-07T10:13:00.393Z,69.52
2022-09-07T10:14:00.315Z,69.52
2022-09-07T10:15:01.363Z,69.52
2022-09-07T10:16:02.127Z,69.52
2022-09-07T10:17:09.034Z,69.37
2022-09-07T10:18:01.634Z,69.37
2022-09-07T10:19:00.618Z,69.37
2022-09-07T10:20:10.475Z,69.37
2022-09-07T10:21:11.477Z,69.37
2022-09-07T10:22:02.320Z,69.59
2022-09-07T10:23:01.193Z,69.59
2022-09-07T10:24:10.195Z,69.59
2022-09-07T10:25:01.124Z,69.59
2022-09-07T10:26:10.220Z,69.59
2022-09-07T10:27:00.321Z,68.12
2022-09-07T10:28:10.217Z,68.12
2022-09-07T10:29:10.638Z,68.12
2022-09-07T10:30:00.958Z,68.12
2022-09-07T10:31:02.328Z,68.12
2022-09-07T10:32:06.617Z,68.57
2022-09-07T10:33:04.126Z,68.57
2022-09-07T10:34:27.474Z,68.57
2022-09-07T10:35:10.222Z,68.57
2022-09-07T10:36:07.784Z,68.57
2022-09-07T10:37:03.329Z,67.92
2022-09-07T10:38:09.758Z,67.92
2022-09-07T10:39:03.275Z,67.92
2022-09-07T10:40:07.768Z,67.92
2022-09-07T10:41:00.306Z,67.92
2022-09-07T10:42:10.195Z,67.49
2022-09-07T10:43:23.016Z,67.49
2022-09-07T10:44:03.394Z,67.49
2022-09-07T10:45:10.227Z,67.49
2022-09-07T10:46:10.526Z,67.49
2022-09-07T10:47:04.805Z,67.74
2022-09-07T10:48:01.299Z,67.74
2022-09-07T10:49:03.551Z,67.74
2022-09-07T10:50:23.139Z,67.74
2022-09-07T10:51:13.961Z,67.74
2022-09-07T10:52:08.562Z,67.51
2022-09-07T10:53:38.994Z,67.51
2022-09-07T10:54:31.470Z,67.51
2022-09-07T10:55:08.817Z,67.51
2022-09-07T10:56:06.084Z,67.51
2022-09-07T10:57:03.573Z,68.30
2022-09-07T10:58:03.693Z,68.30
2022-09-07T10:59:10.177Z,68.30
2022-09-07T11:00:10.819Z,68.30
2022-09-07T11:01:10.223Z,68.30
2022-09-07T11:02:10.288Z,67.67
2022-09-07T11:03:26.075Z,67.67
2022-09-07T11:04:10.193Z,67.67
2022-09-07T11:05:00.266Z,67.67
2022-09-07T11:06:01.331Z,67.67
2022-09-07T11:07:14.926Z,66.50
2022-09-07T11:08:07.820Z,66.50
2022-09-07T11:09:18.469Z,66.50
2022-09-07T11:10:10.264Z,66.50
2022-09-07T11:11:07.741Z,66.50
2022-09-07T11:12:04.525Z,66.05
2022-09-07T11:13:03.457Z,66.05
2022-09-07T11:14:13.003Z,66.05
2022-09-07T11:15:03.579Z,66.05
2022-09-07T11:16:03.984Z,66.05
2022-09-07T11:17:01.721Z,65.21
2022-09-07T11:18:04.471Z,65.21
2022-09-07T11:19:36.163Z,65.21
2022-09-07T11:20:01.290Z,65.21
2022-09-07T11:21:02.053Z,65.21
2022-09-07T11:22:00.303Z,65.66
2022-09-07T11:23:00.289Z,65.66
2022-09-07T11:24:04.114Z,65.66
2022-09-07T11:25:30.870Z,65.66
2022-09-07T11:26:04.173Z,65.66
2022-09-07T11:27:05.277Z,68.39
2022-09-07T11:28:07.001Z,68.39
2022-09-07T11:29:29.860Z,68.39
2022-09-07T11:30:05.066Z,68.39
2022-09-07T11:31:03.268Z,68.39
2022-09-07T11:32:06.107Z,70.59
2022-09-07T11:33:10.064Z,70.59
2022-09-07T11:34:25.602Z,70.59
2022-09-07T11:35:04.421Z,70.59
2022-09-07T11:36:03.556Z,70.59
2022-09-07T11:37:05.290Z,70.46
2022-09-07T11:38:05.198Z,70.46
2022-09-07T11:39:04.594Z,70.46
2022-09-07T11:40:03.632Z,70.46
2022-09-07T11:41:03.548Z,70.46
2022-09-07T11:42:42.933Z,69.26
2022-09-07T11:43:04.729Z,69.26
2022-09-07T11:44:05.979Z,69.26
2022-09-07T11:45:03.343Z,69.26
2022-09-07T11:46:04.536Z,69.26
2022-09-07T11:47:03.642Z,69.75
2022-09-07T11:48:04.856Z,69.75
2022-09-07T11:49:00.456Z,69.75
2022-09-07T11:50:00.444Z,69.75
2022-09-07T11:51:04.869Z,69.75
2022-09-07T11:52:05.293Z,69.18
2022-09-07T11:53:10.246Z,69.18
2022-09-07T11:54:05.447Z,69.18
2022-09-07T11:55:03.430Z,69.18
2022-09-07T11:56:04.324Z,69.18
2022-09-07T11:57:10.269Z,70.28
2022-09-07T11:58:10.295Z,70.28
2022-09-07T11:59:07.680Z,70.28
2022-09-07T12:00:10.294Z,70.28
2022-09-07T12:01:07.705Z,70.28
2022-09-07T12:02:10.255Z,70.38
2022-09-07T12:03:01.057Z,70.38
2022-09-07T12:04:14.641Z,70.38
2022-09-07T12:05:10.245Z,70.38
2022-09-07T12:06:07.760Z,70.38
2022-09-07T12:07:00.289Z,69.90
2022-09-07T12:08:10.256Z,69.90
2022-09-07T12:09:08.935Z,69.90
2022-09-07T12:10:10.253Z,69.90
2022-09-07T12:11:07.127Z,69.90
2022-09-07T12:12:10.250Z,68.11
2022-09-07T12:13:07.725Z,68.11
2022-09-07T12:14:10.187Z,68.11
2022-09-07T12:15:01.255Z,68.11
2022-09-07T12:16:10.220Z,68.11
2022-09-07T12:17:10.170Z,67.29
2022-09-07T12:18:10.185Z,67.29
2022-09-07T12:19:00.299Z,67.29
2022-09-07T12:20:10.203Z,67.29
2022-09-07T12:21:00.332Z,67.29
2022-09-07T12:22:00.371Z,66.69
2022-09-07T12:23:04.541Z,66.69
2022-09-07T12:24:00.330Z,66.69
2022-09-07T12:25:07.194Z,66.69
2022-09-07T12:26:10.175Z,66.69
2022-09-07T12:27:00.973Z,66.27
2022-09-07T12:28:00.708Z,66.27
2022-09-07T12:29:00.252Z,66.27
2022-09-07T12:30:00.283Z,66.27
2022-09-07T12:31:01.299Z,66.27
2022-09-07T12:32:52.657Z,65.86
2022-09-07T12:33:01.442Z,65.86
2022-09-07T12:34:10.184Z,65.86
2022-09-07T12:35:00.311Z,65.86
2022-09-07T12:36:00.440Z,65.86
2022-09-07T12:37:00.937Z,65.01
2022-09-07T12:38:01.138Z,65.01
2022-09-07T12:39:03.713Z,65.01
2022-09-07T12:40:10.228Z,65.01
2022-09-07T12:41:04.428Z,65.01
2022-09-07T12:42:32.873Z,65.18
2022-09-07T12:43:10.190Z,65.18
2022-09-07T12:44:04.661Z,65.18
2022-09-07T12:45:10.271Z,65.18
2022-09-07T12:46:00.894Z,65.18
2022-09-07T12:47:01.515Z,64.95
2022-09-07T12:48:06.193Z,64.95
2022-09-07T12:49:07.718Z,64.95
2022-09-07T12:50:05.258Z,64.95
2022-09-07T12:51:03.532Z,64.95
2022-09-07T12:52:14.935Z,64.27
2022-09-07T12:53:10.187Z,64.27
2022-09-07T12:54:01.286Z,64.27
2022-09-07T12:55:23.910Z,64.27
2022-09-07T12:56:17.790Z,64.27
2022-09-07T12:57:30.702Z,64.40
2022-09-07T12:58:00.250Z,64.40
2022-09-07T12:59:01.270Z,64.40
2022-09-07T13:00:00.337Z,64.40
2022-09-07T13:01:00.333Z,64.40
2022-09-07T13:02:10.250Z,63.90
2022-09-07T13:03:49.411Z,63.90
2022-09-07T13:04:10.368Z,63.90
2022-09-07T13:05:00.251Z,63.90
2022-09-07T13:06:10.166Z,63.90
2022-09-07T13:07:10.277Z,63.49
2022-09-07T13:08:09.381Z,63.49
2022-09-07T13:09:10.171Z,63.49
2022-09-07T13:10:01.862Z,63.49
2022-09-07T13:11:10.173Z,63.49
2022-09-07T13:12:01.481Z,63.42
2022-09-07T13:13:10.274Z,63.42
2022-09-07T13:14:04.688Z,63.42
2022-09-07T13:15:00.556Z,63.42